Portada
METAR-TAF:

METAR-TAF

Aeroports :

Budapest, Hongria

latitud: 47-26N, longitud: 019-16E, altitud: 151 m

Observació

L'informe es va fer fa 18 minuts, a les 14:00 UTC
Vent 15 kt del Oest/Nord-Oest
Temperatura 22°C
Humitat 57%
Pressió 1013 hPa
Visibilitat 10 km o més
Escasses núvols a una alçada de 4600 ft
Núvols disperses a una alçada de 6500 ft

METAR: LHBP 171400Z 30015KT 9999 FEW046 SCT065 22/13 Q1013 NOSIG

Hora: 16:18 (14:18 UTC)

Pronòstic

L'informe es va fer fa 3 hores i 3 minuts, a les 11:15 UTC
Pronòstic vàlid del 17 a les 12 UTC al 18 a les 12 UTC
Vent 15 kt del Nord-Oest
Visibilitat 10 km o més
sense núvols per sota de 1500 mi sense presència de cumulonimbus.
Temporalment
l' 17 a les 19 UTC al 17 a les 24 UTC
Vent 6 kt del Oest/Sud-Oest
Temporalment
l' 18 a les 02 UTC al 18 a les 08 UTC
Vent 20 kt del Nord-Oest amb ràfegues de 34 kt

TAF: LHBP 171115Z 1712/1812 31015KT CAVOK TEMPO 1719/1724 25006KT TEMPO 1802/1808 31020G34KT

Observacions i pronòstics meteorològics de més de 4000 aeroports (METAR i TAF).

Les estacions disponibles són els punts grocs i vermells al mapa.

Posi el ratolí al punt desitjat per veure el nom de l'estació.

Feu clic per veure les observacions i els pronòstics meteorològics.

Per canviar el mapa: feu clic els botons verds amb una creu de color negre per apropar; al botó verd amb un guió per allunyar la imatge; o en les fletxes verdes per a mapes adjacents.


METAR-TAF: